Search for airport 
image banner adimage banner adimage banner ad
image banner ad

KHHR - Jack Northrop Field/Hawthorne Muni

Located in Hawthorne, United States

ICAO - HHR, IATA -

Data provided by Airmate  

General information

Coordinates: N33°55'22" W118°20'6"
Elevation is 66 feet MSL.
Magnetic variation is 14° East
View others Airports in California

Operational data

Special qualification required
Current time UTC:
Current local time:
Weather
METAR: KHHR 150953Z AUTO 00000KT 10SM CLR 18/14 A2985 RMK AO2 SLP108 T01780139
View NOTAMs / SUP AIP / TFR affecting this airport [VIEW]
Communications frequencies: [VIEW]

Runways:

RWY identifierQFULength (ft)Width (ft)SurfaceLDA (ft)
0787°4884100ASPH3765
25267°4884100ASPH4193

Airport contact information

Address: Hawthorne United States

Other aviation service providers

Flight schools

Beach Cities Aviation Academy

Beach Cities Aviation Academy
flybcaa@gmail.com+1(310)676-2206

Calair Aviation

Calair Aviation

Star Helicopters

Star Helicopters

Satellite view of KHHR